Estación Meteorológica Peña el Pijo (Robertgarden) [ 02/03/23 03:52:51 CET ]

Fecha Hora Presion(HPa) Temp (°C) Humedad % Rocio (°C) Viento ( m/s) Direccion Lluvia 1Hora(mm) Lluvia 24H(mm) LLuvia Total(mm)
2010-Aug-09 01:01:16 1016.000 20.9 49 9.8         130.53
2010-Aug-09 02:01:12 1015.700 20.3 51 9.8         130.53
2010-Aug-09 03:01:20 1015.600 19.9 52 9.8         130.53
2010-Aug-09 04:01:13 1015.300 18.4 56 9.4         130.53
2010-Aug-09 05:01:13 1014.900 18.1 58 9.7         130.53
2010-Aug-09 06:01:17 1014.600 18.3 59 10.1         130.53
2010-Aug-09 07:01:18 1014.800 17.1 61 9.5         130.53
2010-Aug-09 08:01:12 1015.200 16.7 63 9.6         130.53
2010-Aug-09 09:01:16 1015.300 19.9 62 12.4         130.53
2010-Aug-09 10:01:11 1015.700 25.3 46 12.8         130.53
2010-Aug-09 11:01:13 1015.800 29.4 35 12.3         130.53
2010-Aug-09 12:01:13 1015.600 31.6 29 11.3         130.53
2010-Aug-09 13:01:15 1015.500 32.6 27 11.0         130.53
2010-Aug-09 14:01:13 1015.200 34.1 26 11.6         130.53
2010-Aug-09 15:01:18 1014.700 35.3 24 11.4         130.53
2010-Aug-09 16:01:12 1014.500 34.3 25 11.2         130.53
2010-Aug-09 17:01:43 1014.200 31.9 29 11.6         130.53
2010-Aug-09 18:01:46 1013.900 32.0 28 11.1         130.53
2010-Aug-09 19:01:42 1013.800 31.5 30 11.2         130.53
2010-Aug-09 20:01:45 1013.900 29.8 28 9.2         130.53
2010-Aug-09 21:01:13 1014.700 28.3 29 8.5         130.53
2010-Aug-09 22:01:13 1015.200 26.3 32 8.2         130.53
2010-Aug-09 23:01:15 1015.700 24.6 39 9.7         130.53

Temperatura Máxima:35°    Temperatura Mínima:16°
Presión Máxima:1016.000 Hpa    Presión Mínima:1013.800 Hpa


Volver